sensor_id;sensor_type;location;lat;lon;timestamp;temperature;humidity
21625;DHT22;10974;51.034;3.744;2022-09-14T00:02:25;22.40;99.90
21625;DHT22;10974;51.034;3.744;2022-09-14T00:04:50;22.30;99.90
21625;DHT22;10974;51.034;3.744;2022-09-14T00:07:17;22.40;99.90
21625;DHT22;10974;51.034;3.744;2022-09-14T00:09:42;22.60;99.90
21625;DHT22;10974;51.034;3.744;2022-09-14T00:12:08;22.60;99.90
21625;DHT22;10974;51.034;3.744;2022-09-14T00:14:35;22.70;99.90
21625;DHT22;10974;51.034;3.744;2022-09-14T00:17:01;22.70;99.90
21625;DHT22;10974;51.034;3.744;2022-09-14T00:19:26;22.60;99.90
21625;DHT22;10974;51.034;3.744;2022-09-14T00:21:54;22.60;99.90
21625;DHT22;10974;51.034;3.744;2022-09-14T00:24:21;22.60;99.90
21625;DHT22;10974;51.034;3.744;2022-09-14T00:26:47;22.60;99.90
21625;DHT22;10974;51.034;3.744;2022-09-14T00:29:13;22.50;99.90
21625;DHT22;10974;51.034;3.744;2022-09-14T00:31:39;22.40;99.90
21625;DHT22;10974;51.034;3.744;2022-09-14T00:34:10;22.40;99.90
21625;DHT22;10974;51.034;3.744;2022-09-14T00:36:40;22.40;99.90
21625;DHT22;10974;51.034;3.744;2022-09-14T00:39:06;22.40;99.90
21625;DHT22;10974;51.034;3.744;2022-09-14T00:41:38;22.50;99.90
21625;DHT22;10974;51.034;3.744;2022-09-14T00:44:05;22.20;99.90
21625;DHT22;10974;51.034;3.744;2022-09-14T00:49:05;22.10;99.90
21625;DHT22;10974;51.034;3.744;2022-09-14T00:51:33;22.10;99.90
21625;DHT22;10974;51.034;3.744;2022-09-14T00:54:03;22.10;99.90
21625;DHT22;10974;51.034;3.744;2022-09-14T00:56:31;22.30;99.90
21625;DHT22;10974;51.034;3.744;2022-09-14T00:58:58;22.20;99.90
21625;DHT22;10974;51.034;3.744;2022-09-14T01:01:25;18.60;99.90
21625;DHT22;10974;51.034;3.744;2022-09-14T01:03:51;17.80;99.90
21625;DHT22;10974;51.034;3.744;2022-09-14T01:14:36;17.20;99.90
21625;DHT22;10974;51.034;3.744;2022-09-14T01:17:27;17.30;99.90
21625;DHT22;10974;51.034;3.744;2022-09-14T01:23:21;17.10;99.90
21625;DHT22;10974;51.034;3.744;2022-09-14T01:28:34;17.20;99.90
21625;DHT22;10974;51.034;3.744;2022-09-14T01:31:12;17.30;99.90
21625;DHT22;10974;51.034;3.744;2022-09-14T01:33:47;17.10;99.90
21625;DHT22;10974;51.034;3.744;2022-09-14T01:36:16;17.10;99.90
21625;DHT22;10974;51.034;3.744;2022-09-14T01:38:49;17.10;99.90
21625;DHT22;10974;51.034;3.744;2022-09-14T01:41:18;17.10;99.90
21625;DHT22;10974;51.034;3.744;2022-09-14T01:43:54;17.10;99.90
21625;DHT22;10974;51.034;3.744;2022-09-14T01:46:27;16.90;99.90
21625;DHT22;10974;51.034;3.744;2022-09-14T01:49:15;17.10;99.90
21625;DHT22;10974;51.034;3.744;2022-09-14T01:51:48;17.00;99.90
21625;DHT22;10974;51.034;3.744;2022-09-14T01:54:22;17.00;99.90
21625;DHT22;10974;51.034;3.744;2022-09-14T01:57:00;17.00;99.90
21625;DHT22;10974;51.034;3.744;2022-09-14T01:59:30;17.00;99.90
21625;DHT22;10974;51.034;3.744;2022-09-14T02:05:23;17.00;99.90
21625;DHT22;10974;51.034;3.744;2022-09-14T02:07:24;17.00;99.90
21625;DHT22;10974;51.034;3.744;2022-09-14T02:09:51;16.90;99.90
21625;DHT22;10974;51.034;3.744;2022-09-14T02:12:18;16.90;99.90
21625;DHT22;10974;51.034;3.744;2022-09-14T02:14:45;16.90;99.90
21625;DHT22;10974;51.034;3.744;2022-09-14T02:17:12;17.00;99.90
21625;DHT22;10974;51.034;3.744;2022-09-14T02:19:47;16.90;99.90
21625;DHT22;10974;51.034;3.744;2022-09-14T02:22:14;16.90;99.90
21625;DHT22;10974;51.034;3.744;2022-09-14T02:24:39;16.90;99.90
21625;DHT22;10974;51.034;3.744;2022-09-14T02:27:06;16.90;99.90
21625;DHT22;10974;51.034;3.744;2022-09-14T02:29:32;16.90;99.90
21625;DHT22;10974;51.034;3.744;2022-09-14T02:35:21;16.80;99.90
21625;DHT22;10974;51.034;3.744;2022-09-14T02:40:27;16.70;99.90
21625;DHT22;10974;51.034;3.744;2022-09-14T02:43:05;16.70;99.90
21625;DHT22;10974;51.034;3.744;2022-09-14T02:45:42;16.70;99.90
21625;DHT22;10974;51.034;3.744;2022-09-14T02:51:20;16.60;99.90
21625;DHT22;10974;51.034;3.744;2022-09-14T02:53:57;16.70;99.90
21625;DHT22;10974;51.034;3.744;2022-09-14T02:56:26;16.60;99.90
21625;DHT22;10974;51.034;3.744;2022-09-14T02:58:52;16.70;99.90
21625;DHT22;10974;51.034;3.744;2022-09-14T03:01:20;16.70;99.90
21625;DHT22;10974;51.034;3.744;2022-09-14T03:03:46;16.60;99.90
21625;DHT22;10974;51.034;3.744;2022-09-14T03:06:11;16.70;99.90
21625;DHT22;10974;51.034;3.744;2022-09-14T03:08:38;16.60;99.90
21625;DHT22;10974;51.034;3.744;2022-09-14T03:11:04;16.50;99.90
21625;DHT22;10974;51.034;3.744;2022-09-14T03:13:30;16.60;99.90
21625;DHT22;10974;51.034;3.744;2022-09-14T03:15:56;16.60;99.90
21625;DHT22;10974;51.034;3.744;2022-09-14T03:18:21;16.60;99.90
21625;DHT22;10974;51.034;3.744;2022-09-14T03:20:47;16.50;99.90
21625;DHT22;10974;51.034;3.744;2022-09-14T03:23:13;16.50;99.90
21625;DHT22;10974;51.034;3.744;2022-09-14T03:25:41;16.50;99.90
21625;DHT22;10974;51.034;3.744;2022-09-14T03:28:08;16.60;99.90
21625;DHT22;10974;51.034;3.744;2022-09-14T03:30:34;16.50;99.90
21625;DHT22;10974;51.034;3.744;2022-09-14T03:33:00;16.60;99.90
21625;DHT22;10974;51.034;3.744;2022-09-14T03:35:30;16.50;99.90
21625;DHT22;10974;51.034;3.744;2022-09-14T03:37:57;16.50;99.90
21625;DHT22;10974;51.034;3.744;2022-09-14T03:40:23;16.60;99.90
21625;DHT22;10974;51.034;3.744;2022-09-14T03:42:50;16.50;99.90
21625;DHT22;10974;51.034;3.744;2022-09-14T03:45:17;16.50;99.90
21625;DHT22;10974;51.034;3.744;2022-09-14T03:47:43;16.40;99.90
21625;DHT22;10974;51.034;3.744;2022-09-14T03:50:11;16.40;99.90
21625;DHT22;10974;51.034;3.744;2022-09-14T03:52:37;16.40;99.90
21625;DHT22;10974;51.034;3.744;2022-09-14T03:55:05;16.50;99.90
21625;DHT22;10974;51.034;3.744;2022-09-14T03:57:31;16.50;99.90
21625;DHT22;10974;51.034;3.744;2022-09-14T03:59:57;16.50;99.90
21625;DHT22;10974;51.034;3.744;2022-09-14T04:02:23;16.40;99.90
21625;DHT22;10974;51.034;3.744;2022-09-14T04:04:49;16.40;99.90
21625;DHT22;10974;51.034;3.744;2022-09-14T04:07:15;16.40;99.90
21625;DHT22;10974;51.034;3.744;2022-09-14T04:09:41;16.40;99.90
21625;DHT22;10974;51.034;3.744;2022-09-14T04:12:07;16.40;99.90
21625;DHT22;10974;51.034;3.744;2022-09-14T04:14:33;16.50;99.90
21625;DHT22;10974;51.034;3.744;2022-09-14T04:16:59;16.40;99.90
21625;DHT22;10974;51.034;3.744;2022-09-14T04:19:24;16.40;99.90
21625;DHT22;10974;51.034;3.744;2022-09-14T04:21:50;16.40;99.90
21625;DHT22;10974;51.034;3.744;2022-09-14T04:24:16;16.40;99.90
21625;DHT22;10974;51.034;3.744;2022-09-14T04:26:42;16.40;99.90
21625;DHT22;10974;51.034;3.744;2022-09-14T04:29:09;16.40;99.90
21625;DHT22;10974;51.034;3.744;2022-09-14T04:31:35;16.40;99.90
21625;DHT22;10974;51.034;3.744;2022-09-14T04:34:01;16.30;99.90
21625;DHT22;10974;51.034;3.744;2022-09-14T04:36:27;16.30;99.90
21625;DHT22;10974;51.034;3.744;2022-09-14T04:38:57;16.30;99.90
21625;DHT22;10974;51.034;3.744;2022-09-14T04:41:24;16.20;99.90
21625;DHT22;10974;51.034;3.744;2022-09-14T04:43:50;16.30;99.90
21625;DHT22;10974;51.034;3.744;2022-09-14T04:46:25;16.30;99.90
21625;DHT22;10974;51.034;3.744;2022-09-14T04:48:50;16.30;99.90
21625;DHT22;10974;51.034;3.744;2022-09-14T04:51:21;16.20;99.90
21625;DHT22;10974;51.034;3.744;2022-09-14T04:53:49;16.30;99.90
21625;DHT22;10974;51.034;3.744;2022-09-14T04:56:17;16.20;99.90
21625;DHT22;10974;51.034;3.744;2022-09-14T04:58:45;16.20;99.90
21625;DHT22;10974;51.034;3.744;2022-09-14T05:01:15;16.30;99.90
21625;DHT22;10974;51.034;3.744;2022-09-14T05:03:42;16.30;99.90
21625;DHT22;10974;51.034;3.744;2022-09-14T05:06:11;16.10;99.90
21625;DHT22;10974;51.034;3.744;2022-09-14T05:08:37;16.20;99.90
21625;DHT22;10974;51.034;3.744;2022-09-14T05:11:05;16.20;99.90
21625;DHT22;10974;51.034;3.744;2022-09-14T05:13:32;16.20;99.90
21625;DHT22;10974;51.034;3.744;2022-09-14T05:16:15;16.10;99.90
21625;DHT22;10974;51.034;3.744;2022-09-14T05:18:41;16.30;99.90
21625;DHT22;10974;51.034;3.744;2022-09-14T05:21:10;16.20;99.90
21625;DHT22;10974;51.034;3.744;2022-09-14T05:23:37;16.20;99.90
21625;DHT22;10974;51.034;3.744;2022-09-14T05:26:04;16.10;99.90
21625;DHT22;10974;51.034;3.744;2022-09-14T05:28:30;16.10;99.90
21625;DHT22;10974;51.034;3.744;2022-09-14T05:30:56;16.00;99.90
21625;DHT22;10974;51.034;3.744;2022-09-14T05:33:22;16.20;99.90
21625;DHT22;10974;51.034;3.744;2022-09-14T05:35:49;16.10;99.90
21625;DHT22;10974;51.034;3.744;2022-09-14T05:38:15;16.10;99.90
21625;DHT22;10974;51.034;3.744;2022-09-14T05:40:41;16.20;99.90
21625;DHT22;10974;51.034;3.744;2022-09-14T05:43:06;16.20;99.90
21625;DHT22;10974;51.034;3.744;2022-09-14T05:45:33;16.10;99.90
21625;DHT22;10974;51.034;3.744;2022-09-14T05:48:02;16.20;99.90
21625;DHT22;10974;51.034;3.744;2022-09-14T05:50:32;16.10;99.90
21625;DHT22;10974;51.034;3.744;2022-09-14T05:52:59;16.10;99.90
21625;DHT22;10974;51.034;3.744;2022-09-14T05:55:25;16.00;99.90
21625;DHT22;10974;51.034;3.744;2022-09-14T05:57:51;16.00;99.90
21625;DHT22;10974;51.034;3.744;2022-09-14T06:00:17;16.60;99.90
21625;DHT22;10974;51.034;3.744;2022-09-14T06:02:47;17.70;99.90
21625;DHT22;10974;51.034;3.744;2022-09-14T06:05:14;18.50;99.90
21625;DHT22;10974;51.034;3.744;2022-09-14T06:07:40;19.00;99.90
21625;DHT22;10974;51.034;3.744;2022-09-14T06:10:06;19.40;99.90
21625;DHT22;10974;51.034;3.744;2022-09-14T06:12:32;19.60;99.90
21625;DHT22;10974;51.034;3.744;2022-09-14T06:14:58;19.80;99.90
21625;DHT22;10974;51.034;3.744;2022-09-14T06:17:24;20.00;99.90
21625;DHT22;10974;51.034;3.744;2022-09-14T06:19:50;20.20;99.90
21625;DHT22;10974;51.034;3.744;2022-09-14T06:22:15;20.50;99.90
21625;DHT22;10974;51.034;3.744;2022-09-14T06:24:41;20.40;99.90
21625;DHT22;10974;51.034;3.744;2022-09-14T06:27:07;20.40;99.90
21625;DHT22;10974;51.034;3.744;2022-09-14T06:29:34;20.80;99.90
21625;DHT22;10974;51.034;3.744;2022-09-14T06:32:00;21.10;99.90
21625;DHT22;10974;51.034;3.744;2022-09-14T06:34:25;21.30;99.90
21625;DHT22;10974;51.034;3.744;2022-09-14T06:36:51;21.30;99.90
21625;DHT22;10974;51.034;3.744;2022-09-14T06:39:17;21.40;99.90
21625;DHT22;10974;51.034;3.744;2022-09-14T06:41:42;21.40;99.90
21625;DHT22;10974;51.034;3.744;2022-09-14T06:44:09;21.50;99.90
21625;DHT22;10974;51.034;3.744;2022-09-14T06:46:35;21.60;99.90
21625;DHT22;10974;51.034;3.744;2022-09-14T06:49:06;21.60;99.90
21625;DHT22;10974;51.034;3.744;2022-09-14T06:51:36;21.60;99.90
21625;DHT22;10974;51.034;3.744;2022-09-14T06:54:03;21.40;99.90
21625;DHT22;10974;51.034;3.744;2022-09-14T06:56:37;21.20;99.90
21625;DHT22;10974;51.034;3.744;2022-09-14T06:59:05;21.40;99.90
21625;DHT22;10974;51.034;3.744;2022-09-14T07:01:31;21.30;99.90
21625;DHT22;10974;51.034;3.744;2022-09-14T07:03:57;21.20;99.90
21625;DHT22;10974;51.034;3.744;2022-09-14T07:06:27;21.30;99.90
21625;DHT22;10974;51.034;3.744;2022-09-14T07:08:53;21.40;99.90
21625;DHT22;10974;51.034;3.744;2022-09-14T07:11:22;21.30;99.90
21625;DHT22;10974;51.034;3.744;2022-09-14T07:13:51;21.30;99.90
21625;DHT22;10974;51.034;3.744;2022-09-14T07:16:19;20.90;99.90
21625;DHT22;10974;51.034;3.744;2022-09-14T07:18:45;20.60;99.90
21625;DHT22;10974;51.034;3.744;2022-09-14T07:21:16;20.80;99.90
21625;DHT22;10974;51.034;3.744;2022-09-14T07:23:44;20.00;99.90
21625;DHT22;10974;51.034;3.744;2022-09-14T07:26:15;19.40;99.90
21625;DHT22;10974;51.034;3.744;2022-09-14T07:28:44;19.00;99.90
21625;DHT22;10974;51.034;3.744;2022-09-14T07:31:22;18.70;99.90
21625;DHT22;10974;51.034;3.744;2022-09-14T07:33:52;18.70;99.90
21625;DHT22;10974;51.034;3.744;2022-09-14T07:36:19;18.50;99.90
21625;DHT22;10974;51.034;3.744;2022-09-14T07:38:45;18.40;99.90
21625;DHT22;10974;51.034;3.744;2022-09-14T07:41:10;18.40;99.90
21625;DHT22;10974;51.034;3.744;2022-09-14T07:43:36;18.30;99.90
21625;DHT22;10974;51.034;3.744;2022-09-14T07:46:04;18.30;99.90
21625;DHT22;10974;51.034;3.744;2022-09-14T07:48:31;18.20;99.90
21625;DHT22;10974;51.034;3.744;2022-09-14T07:51:05;18.20;99.90
21625;DHT22;10974;51.034;3.744;2022-09-14T07:53:31;18.20;99.90
21625;DHT22;10974;51.034;3.744;2022-09-14T07:56:00;18.10;99.90
21625;DHT22;10974;51.034;3.744;2022-09-14T07:58:27;18.30;99.90
21625;DHT22;10974;51.034;3.744;2022-09-14T08:01:08;18.20;99.90
21625;DHT22;10974;51.034;3.744;2022-09-14T08:03:34;18.10;99.90
21625;DHT22;10974;51.034;3.744;2022-09-14T08:06:12;18.10;99.90
21625;DHT22;10974;51.034;3.744;2022-09-14T08:08:40;18.10;99.90
21625;DHT22;10974;51.034;3.744;2022-09-14T08:11:15;18.10;99.90
21625;DHT22;10974;51.034;3.744;2022-09-14T08:13:44;18.10;99.90
21625;DHT22;10974;51.034;3.744;2022-09-14T08:16:11;18.10;99.90
21625;DHT22;10974;51.034;3.744;2022-09-14T08:18:37;18.10;99.90
21625;DHT22;10974;51.034;3.744;2022-09-14T08:21:04;18.00;99.90
21625;DHT22;10974;51.034;3.744;2022-09-14T08:23:31;18.00;99.90
21625;DHT22;10974;51.034;3.744;2022-09-14T08:26:27;18.10;99.90
21625;DHT22;10974;51.034;3.744;2022-09-14T08:28:54;18.20;99.90
21625;DHT22;10974;51.034;3.744;2022-09-14T08:31:24;18.40;99.90
21625;DHT22;10974;51.034;3.744;2022-09-14T08:33:52;18.50;99.90
21625;DHT22;10974;51.034;3.744;2022-09-14T08:36:20;18.50;99.90
21625;DHT22;10974;51.034;3.744;2022-09-14T08:38:46;18.50;99.90
21625;DHT22;10974;51.034;3.744;2022-09-14T08:43:47;18.40;99.90
21625;DHT22;10974;51.034;3.744;2022-09-14T08:46:34;18.30;99.90
21625;DHT22;10974;51.034;3.744;2022-09-14T08:49:02;18.40;99.90
21625;DHT22;10974;51.034;3.744;2022-09-14T08:51:29;18.30;99.90
21625;DHT22;10974;51.034;3.744;2022-09-14T08:53:56;18.20;99.90
21625;DHT22;10974;51.034;3.744;2022-09-14T08:56:28;18.10;99.90
21625;DHT22;10974;51.034;3.744;2022-09-14T09:12:04;18.20;99.90
21625;DHT22;10974;51.034;3.744;2022-09-14T09:14:34;18.40;99.90
21625;DHT22;10974;51.034;3.744;2022-09-14T09:17:11;18.40;99.90
21625;DHT22;10974;51.034;3.744;2022-09-14T09:20:03;18.30;99.90
21625;DHT22;10974;51.034;3.744;2022-09-14T09:22:29;18.30;99.90
21625;DHT22;10974;51.034;3.744;2022-09-14T09:24:57;18.10;99.90
21625;DHT22;10974;51.034;3.744;2022-09-14T09:27:25;18.00;99.90
21625;DHT22;10974;51.034;3.744;2022-09-14T09:29:52;18.00;99.90
21625;DHT22;10974;51.034;3.744;2022-09-14T09:32:22;18.00;99.90
21625;DHT22;10974;51.034;3.744;2022-09-14T09:34:48;18.00;99.90
21625;DHT22;10974;51.034;3.744;2022-09-14T09:37:17;18.10;99.90
21625;DHT22;10974;51.034;3.744;2022-09-14T09:39:43;18.10;99.90
21625;DHT22;10974;51.034;3.744;2022-09-14T09:42:26;18.10;99.90
21625;DHT22;10974;51.034;3.744;2022-09-14T09:45:03;18.10;99.90
21625;DHT22;10974;51.034;3.744;2022-09-14T09:47:34;18.00;99.90
21625;DHT22;10974;51.034;3.744;2022-09-14T09:50:26;17.90;99.90
21625;DHT22;10974;51.034;3.744;2022-09-14T09:52:53;17.90;99.90
21625;DHT22;10974;51.034;3.744;2022-09-14T09:55:22;17.90;99.90
21625;DHT22;10974;51.034;3.744;2022-09-14T09:57:48;17.90;99.90
21625;DHT22;10974;51.034;3.744;2022-09-14T10:02:49;16.50;99.90
21625;DHT22;10974;51.034;3.744;2022-09-14T10:05:27;16.30;99.90
21625;DHT22;10974;51.034;3.744;2022-09-14T10:08:01;16.30;99.90
21625;DHT22;10974;51.034;3.744;2022-09-14T10:12:59;16.10;99.90
21625;DHT22;10974;51.034;3.744;2022-09-14T10:15:33;16.10;99.90
21625;DHT22;10974;51.034;3.744;2022-09-14T10:20:42;16.10;99.90
21625;DHT22;10974;51.034;3.744;2022-09-14T10:25:45;16.10;99.90
21625;DHT22;10974;51.034;3.744;2022-09-14T10:28:26;16.10;99.90
21625;DHT22;10974;51.034;3.744;2022-09-14T10:31:00;16.10;99.90
21625;DHT22;10974;51.034;3.744;2022-09-14T10:33:28;16.00;99.90
21625;DHT22;10974;51.034;3.744;2022-09-14T10:36:12;16.00;99.90
21625;DHT22;10974;51.034;3.744;2022-09-14T10:38:55;16.00;99.90
21625;DHT22;10974;51.034;3.744;2022-09-14T10:41:40;16.00;99.90
21625;DHT22;10974;51.034;3.744;2022-09-14T10:55:33;16.10;99.90
21625;DHT22;10974;51.034;3.744;2022-09-14T11:06:29;16.10;99.90
21625;DHT22;10974;51.034;3.744;2022-09-14T11:12:02;16.10;99.90
21625;DHT22;10974;51.034;3.744;2022-09-14T11:14:41;16.10;99.90
21625;DHT22;10974;51.034;3.744;2022-09-14T11:20:11;16.00;99.90
21625;DHT22;10974;51.034;3.744;2022-09-14T11:22:55;15.90;99.90
21625;DHT22;10974;51.034;3.744;2022-09-14T11:25:56;15.60;99.90
21625;DHT22;10974;51.034;3.744;2022-09-14T11:28:24;15.80;99.90
21625;DHT22;10974;51.034;3.744;2022-09-14T11:31:04;15.70;99.90
21625;DHT22;10974;51.034;3.744;2022-09-14T11:33:39;15.80;99.90
21625;DHT22;10974;51.034;3.744;2022-09-14T11:36:27;15.70;99.90
21625;DHT22;10974;51.034;3.744;2022-09-14T11:39:21;15.80;99.90
21625;DHT22;10974;51.034;3.744;2022-09-14T11:42:04;15.70;99.90
21625;DHT22;10974;51.034;3.744;2022-09-14T11:44:41;15.60;99.90
21625;DHT22;10974;51.034;3.744;2022-09-14T11:47:18;15.60;99.90
21625;DHT22;10974;51.034;3.744;2022-09-14T11:52:40;15.80;99.90
21625;DHT22;10974;51.034;3.744;2022-09-14T11:55:15;15.70;99.90
21625;DHT22;10974;51.034;3.744;2022-09-14T11:57:44;15.70;99.90
21625;DHT22;10974;51.034;3.744;2022-09-14T12:03:00;15.60;99.90
21625;DHT22;10974;51.034;3.744;2022-09-14T12:05:37;15.60;99.90
21625;DHT22;10974;51.034;3.744;2022-09-14T12:08:26;15.80;99.90
21625;DHT22;10974;51.034;3.744;2022-09-14T12:13:35;15.80;99.90
21625;DHT22;10974;51.034;3.744;2022-09-14T12:16:03;15.70;99.90
21625;DHT22;10974;51.034;3.744;2022-09-14T12:18:29;15.80;99.90
21625;DHT22;10974;51.034;3.744;2022-09-14T12:26:12;15.70;99.90
21625;DHT22;10974;51.034;3.744;2022-09-14T12:29:03;15.90;99.90
21625;DHT22;10974;51.034;3.744;2022-09-14T12:44:32;16.10;99.90
21625;DHT22;10974;51.034;3.744;2022-09-14T12:49:53;16.00;99.90
21625;DHT22;10974;51.034;3.744;2022-09-14T12:57:46;16.10;99.90
21625;DHT22;10974;51.034;3.744;2022-09-14T13:00:16;16.10;99.90
21625;DHT22;10974;51.034;3.744;2022-09-14T13:03:24;16.00;99.90
21625;DHT22;10974;51.034;3.744;2022-09-14T13:05:53;16.10;99.90
21625;DHT22;10974;51.034;3.744;2022-09-14T13:08:22;15.90;99.90
21625;DHT22;10974;51.034;3.744;2022-09-14T13:10:50;16.00;99.90
21625;DHT22;10974;51.034;3.744;2022-09-14T13:13:21;16.00;99.90
21625;DHT22;10974;51.034;3.744;2022-09-14T13:15:51;16.00;99.90
21625;DHT22;10974;51.034;3.744;2022-09-14T13:20:58;15.90;99.90
21625;DHT22;10974;51.034;3.744;2022-09-14T13:23:34;16.10;99.90
21625;DHT22;10974;51.034;3.744;2022-09-14T13:26:11;15.90;99.90
21625;DHT22;10974;51.034;3.744;2022-09-14T13:28:41;15.90;99.90
21625;DHT22;10974;51.034;3.744;2022-09-14T13:31:12;16.00;99.90
21625;DHT22;10974;51.034;3.744;2022-09-14T13:33:48;16.00;99.90
21625;DHT22;10974;51.034;3.744;2022-09-14T13:36:17;16.00;99.90
21625;DHT22;10974;51.034;3.744;2022-09-14T13:38:43;15.80;99.90
21625;DHT22;10974;51.034;3.744;2022-09-14T13:41:20;15.90;99.90
21625;DHT22;10974;51.034;3.744;2022-09-14T13:43:48;15.90;99.90
21625;DHT22;10974;51.034;3.744;2022-09-14T13:46:15;15.90;99.90
21625;DHT22;10974;51.034;3.744;2022-09-14T13:48:42;15.90;99.90
21625;DHT22;10974;51.034;3.744;2022-09-14T13:51:09;15.80;99.90
21625;DHT22;10974;51.034;3.744;2022-09-14T13:53:48;15.90;99.90
21625;DHT22;10974;51.034;3.744;2022-09-14T13:56:30;15.80;99.90
21625;DHT22;10974;51.034;3.744;2022-09-14T14:01:42;15.90;99.90
21625;DHT22;10974;51.034;3.744;2022-09-14T14:04:33;15.90;99.90
21625;DHT22;10974;51.034;3.744;2022-09-14T14:12:42;15.90;99.90
21625;DHT22;10974;51.034;3.744;2022-09-14T14:17:37;16.20;99.90
21625;DHT22;10974;51.034;3.744;2022-09-14T14:28:16;16.10;99.90
21625;DHT22;10974;51.034;3.744;2022-09-14T14:30:43;16.10;99.90
21625;DHT22;10974;51.034;3.744;2022-09-14T14:33:11;16.10;99.90
21625;DHT22;10974;51.034;3.744;2022-09-14T14:35:38;16.00;99.90
21625;DHT22;10974;51.034;3.744;2022-09-14T14:38:04;16.10;99.90
21625;DHT22;10974;51.034;3.744;2022-09-14T14:40:31;16.20;99.90
21625;DHT22;10974;51.034;3.744;2022-09-14T14:42:58;16.10;99.90
21625;DHT22;10974;51.034;3.744;2022-09-14T14:45:25;16.00;99.90
21625;DHT22;10974;51.034;3.744;2022-09-14T14:47:53;16.00;99.90
21625;DHT22;10974;51.034;3.744;2022-09-14T14:50:24;16.10;99.90
21625;DHT22;10974;51.034;3.744;2022-09-14T14:52:50;16.10;99.90
21625;DHT22;10974;51.034;3.744;2022-09-14T14:55:17;16.00;99.90
21625;DHT22;10974;51.034;3.744;2022-09-14T14:57:44;16.00;99.90
21625;DHT22;10974;51.034;3.744;2022-09-14T15:00:14;15.90;99.90
21625;DHT22;10974;51.034;3.744;2022-09-14T15:02:40;15.80;99.90
21625;DHT22;10974;51.034;3.744;2022-09-14T15:05:06;15.90;99.90
21625;DHT22;10974;51.034;3.744;2022-09-14T15:07:32;16.00;99.90
21625;DHT22;10974;51.034;3.744;2022-09-14T15:09:58;15.80;99.90
21625;DHT22;10974;51.034;3.744;2022-09-14T15:12:24;15.90;99.90
21625;DHT22;10974;51.034;3.744;2022-09-14T15:14:49;15.80;99.90
21625;DHT22;10974;51.034;3.744;2022-09-14T15:17:15;15.80;99.90
21625;DHT22;10974;51.034;3.744;2022-09-14T15:19:41;15.70;99.90
21625;DHT22;10974;51.034;3.744;2022-09-14T15:22:08;15.80;99.90
21625;DHT22;10974;51.034;3.744;2022-09-14T15:24:34;15.90;99.90
21625;DHT22;10974;51.034;3.744;2022-09-14T15:26:59;15.80;99.90
21625;DHT22;10974;51.034;3.744;2022-09-14T15:29:25;15.80;99.90
21625;DHT22;10974;51.034;3.744;2022-09-14T15:31:51;15.80;99.90
21625;DHT22;10974;51.034;3.744;2022-09-14T15:34:16;15.70;99.90
21625;DHT22;10974;51.034;3.744;2022-09-14T15:36:47;15.80;99.90
21625;DHT22;10974;51.034;3.744;2022-09-14T15:39:17;15.80;99.90
21625;DHT22;10974;51.034;3.744;2022-09-14T15:41:43;15.90;99.90
21625;DHT22;10974;51.034;3.744;2022-09-14T15:44:09;15.80;99.90
21625;DHT22;10974;51.034;3.744;2022-09-14T15:46:37;15.90;99.90
21625;DHT22;10974;51.034;3.744;2022-09-14T15:49:09;15.90;99.90
21625;DHT22;10974;51.034;3.744;2022-09-14T15:51:36;15.90;99.90
21625;DHT22;10974;51.034;3.744;2022-09-14T15:54:02;15.80;99.90
21625;DHT22;10974;51.034;3.744;2022-09-14T15:56:28;15.80;99.90
21625;DHT22;10974;51.034;3.744;2022-09-14T15:58:56;15.70;99.90
21625;DHT22;10974;51.034;3.744;2022-09-14T16:01:23;16.50;99.90
21625;DHT22;10974;51.034;3.744;2022-09-14T16:03:54;17.30;99.90
21625;DHT22;10974;51.034;3.744;2022-09-14T16:06:19;17.80;99.90
21625;DHT22;10974;51.034;3.744;2022-09-14T16:08:45;17.50;99.90
21625;DHT22;10974;51.034;3.744;2022-09-14T16:11:11;17.50;99.90
21625;DHT22;10974;51.034;3.744;2022-09-14T16:13:36;17.60;99.90
21625;DHT22;10974;51.034;3.744;2022-09-14T16:16:20;17.70;99.90
21625;DHT22;10974;51.034;3.744;2022-09-14T16:18:46;17.70;99.90
21625;DHT22;10974;51.034;3.744;2022-09-14T16:21:20;17.70;99.90
21625;DHT22;10974;51.034;3.744;2022-09-14T16:23:49;17.80;99.90
21625;DHT22;10974;51.034;3.744;2022-09-14T16:26:19;17.70;99.90
21625;DHT22;10974;51.034;3.744;2022-09-14T16:28:46;17.90;99.90
21625;DHT22;10974;51.034;3.744;2022-09-14T16:31:33;18.00;99.90
21625;DHT22;10974;51.034;3.744;2022-09-14T16:34:02;17.90;99.90
21625;DHT22;10974;51.034;3.744;2022-09-14T16:36:31;18.10;99.90
21625;DHT22;10974;51.034;3.744;2022-09-14T16:39:00;18.10;99.90
21625;DHT22;10974;51.034;3.744;2022-09-14T16:41:26;18.00;99.90
21625;DHT22;10974;51.034;3.744;2022-09-14T16:43:54;18.10;99.90
21625;DHT22;10974;51.034;3.744;2022-09-14T16:46:20;18.10;99.90
21625;DHT22;10974;51.034;3.744;2022-09-14T16:48:47;18.10;99.90
21625;DHT22;10974;51.034;3.744;2022-09-14T16:51:16;18.10;99.90
21625;DHT22;10974;51.034;3.744;2022-09-14T16:53:43;18.10;99.90
21625;DHT22;10974;51.034;3.744;2022-09-14T16:56:18;18.10;99.90
21625;DHT22;10974;51.034;3.744;2022-09-14T16:58:45;18.10;99.90
21625;DHT22;10974;51.034;3.744;2022-09-14T17:03:42;18.20;99.90
21625;DHT22;10974;51.034;3.744;2022-09-14T17:06:16;18.10;99.90
21625;DHT22;10974;51.034;3.744;2022-09-14T17:08:42;18.20;99.90
21625;DHT22;10974;51.034;3.744;2022-09-14T17:11:09;18.20;99.90
21625;DHT22;10974;51.034;3.744;2022-09-14T17:13:35;18.20;99.90
21625;DHT22;10974;51.034;3.744;2022-09-14T17:16:10;18.20;99.90
21625;DHT22;10974;51.034;3.744;2022-09-14T17:18:38;18.20;99.90
21625;DHT22;10974;51.034;3.744;2022-09-14T17:21:14;18.20;99.90
21625;DHT22;10974;51.034;3.744;2022-09-14T17:23:40;18.20;99.90
21625;DHT22;10974;51.034;3.744;2022-09-14T17:26:08;18.10;99.90
21625;DHT22;10974;51.034;3.744;2022-09-14T17:28:34;18.10;99.90
21625;DHT22;10974;51.034;3.744;2022-09-14T17:31:02;18.10;99.90
21625;DHT22;10974;51.034;3.744;2022-09-14T17:33:28;18.10;99.90
21625;DHT22;10974;51.034;3.744;2022-09-14T17:35:56;18.10;99.90
21625;DHT22;10974;51.034;3.744;2022-09-14T17:38:25;18.20;99.90
21625;DHT22;10974;51.034;3.744;2022-09-14T17:40:51;18.20;99.90
21625;DHT22;10974;51.034;3.744;2022-09-14T17:43:17;18.20;99.90
21625;DHT22;10974;51.034;3.744;2022-09-14T17:45:56;18.20;99.90
21625;DHT22;10974;51.034;3.744;2022-09-14T17:48:22;18.20;99.90
21625;DHT22;10974;51.034;3.744;2022-09-14T17:50:49;18.20;99.90
21625;DHT22;10974;51.034;3.744;2022-09-14T17:53:15;18.30;99.90
21625;DHT22;10974;51.034;3.744;2022-09-14T17:55:41;18.30;99.90
21625;DHT22;10974;51.034;3.744;2022-09-14T17:58:07;18.30;99.90
21625;DHT22;10974;51.034;3.744;2022-09-14T18:00:33;18.10;99.90
21625;DHT22;10974;51.034;3.744;2022-09-14T18:02:59;18.00;99.90
21625;DHT22;10974;51.034;3.744;2022-09-14T18:05:24;18.10;99.90